Time;durP1;ratioP1;P1;durP2;ratioP2;P2;SDS_P1;SDS_P2;PMS_P1;PMS_P2;Temp;Humidity;BMP_temperature;BMP_pressure;BME280_temperature;BME280_humidity;BME280_pressure;Samples;Min_cycle;Max_cycle;Signal;HPM_P1;HPM_P2
2022/07/21 00:01:52;;;;;;;14.05;4.45;;;26.60;72.20;;;;;;5053088;28;20541;-63
2022/07/21 00:04:20;;;;;;;12.85;4.45;;;26.60;72.30;;;;;;5038774;28;20021;-63
2022/07/21 00:06:46;;;;;;;14.35;4.63;;;26.60;72.40;;;;;;5032744;28;20047;-63
2022/07/21 00:09:13;;;;;;;11.30;4.25;;;26.60;72.50;;;;;;5039832;28;20052;-63
2022/07/21 00:11:39;;;;;;;14.60;5.38;;;26.50;72.50;;;;;;5040133;28;20108;-63
2022/07/21 00:14:07;;;;;;;12.93;4.57;;;26.50;72.60;;;;;;5052324;28;20029;-63
2022/07/21 00:16:33;;;;;;;8.80;4.07;;;26.40;72.60;;;;;;5051304;28;20057;-63
2022/07/21 00:18:59;;;;;;;10.32;4.30;;;26.40;72.70;;;;;;5036008;28;20056;-63
2022/07/21 00:21:27;;;;;;;10.55;4.35;;;26.40;72.70;;;;;;5033885;28;20034;-63
2022/07/21 00:23:53;;;;;;;12.95;4.93;;;26.30;72.70;;;;;;5041946;28;20037;-63
2022/07/21 00:26:21;;;;;;;10.43;4.30;;;26.30;72.70;;;;;;5050138;28;20079;-63
2022/07/21 00:28:48;;;;;;;11.63;4.63;;;26.30;72.90;;;;;;5046310;28;20048;-63
2022/07/21 00:31:14;;;;;;;14.25;5.30;;;26.30;73.00;;;;;;5035160;28;20043;-63
2022/07/21 00:33:39;;;;;;;12.23;4.78;;;26.30;73.20;;;;;;5034174;28;20041;-63
2022/07/21 00:36:05;;;;;;;11.55;4.25;;;26.20;73.30;;;;;;5045239;28;20032;-63
2022/07/21 00:38:31;;;;;;;11.93;4.50;;;26.20;73.40;;;;;;5052707;28;20143;-63
2022/07/21 00:40:59;;;;;;;11.48;4.13;;;26.20;74.10;;;;;;5038433;28;20033;-63
2022/07/21 00:43:25;;;;;;;9.82;4.68;;;26.10;73.30;;;;;;5034276;28;20134;-63
2022/07/21 00:45:57;;;;;;;11.02;4.45;;;26.10;73.00;;;;;;5034837;28;20491;-63
2022/07/21 00:48:24;;;;;;;15.68;5.25;;;26.10;73.20;;;;;;5031517;28;20473;-63
2022/07/21 00:50:50;;;;;;;13.65;4.80;;;26.10;73.40;;;;;;5037677;28;20078;-63
2022/07/21 00:53:16;;;;;;;10.30;4.80;;;26.10;73.70;;;;;;5052970;28;20043;-63
2022/07/21 00:55:43;;;;;;;8.68;4.20;;;26.10;74.00;;;;;;5038168;28;20166;-63
2022/07/21 00:58:09;;;;;;;12.40;4.50;;;26.10;73.80;;;;;;5044445;28;20025;-63
2022/07/21 01:00:35;;;;;;;12.02;4.57;;;26.10;73.50;;;;;;5034766;28;20366;-64
2022/07/21 01:03:01;;;;;;;11.95;4.82;;;26.00;73.00;;;;;;5047190;28;20045;-64
2022/07/21 01:05:27;;;;;;;9.40;4.82;;;26.00;73.30;;;;;;5042137;28;20037;-64
2022/07/21 01:07:54;;;;;;;10.48;4.18;;;26.00;73.20;;;;;;5041687;28;20058;-64
2022/07/21 01:10:23;;;;;;;6.32;3.60;;;26.00;73.60;;;;;;5048593;28;20094;-64
2022/07/21 01:12:50;;;;;;;13.52;3.72;;;26.00;73.40;;;;;;5052161;28;20053;-64
2022/07/21 01:15:20;;;;;;;5.40;3.00;;;26.00;72.90;;;;;;5038996;28;20040;-64
2022/07/21 01:17:47;;;;;;;14.15;3.72;;;26.00;72.10;;;;;;5051450;28;20029;-64
2022/07/21 01:20:21;;;;;;;10.45;4.18;;;26.00;72.30;;;;;;5050668;28;20048;-64
2022/07/21 01:22:51;;;;;;;16.55;5.53;;;25.90;73.00;;;;;;5038323;28;20040;-64
2022/07/21 01:25:20;;;;;;;11.55;4.30;;;25.90;73.50;;;;;;5051894;28;20499;-64
2022/07/21 01:27:46;;;;;;;11.30;4.30;;;25.90;73.40;;;;;;5051068;28;20387;-64
2022/07/21 01:30:13;;;;;;;13.90;5.40;;;25.80;73.00;;;;;;5051231;28;20037;-64
2022/07/21 01:32:41;;;;;;;16.15;5.00;;;25.80;74.10;;;;;;5051988;28;20025;-64
2022/07/21 01:35:11;;;;;;;14.65;5.22;;;25.80;75.20;;;;;;5051441;28;20043;-64
2022/07/21 01:37:39;;;;;;;16.42;5.82;;;25.80;76.10;;;;;;5032025;28;20038;-64
2022/07/21 01:42:57;;;;;;;17.13;6.75;;;25.80;78.30;;;;;;5052091;28;20063;-64
2022/07/21 01:45:23;;;;;;;13.88;5.35;;;25.80;78.70;;;;;;5033207;28;20038;-64
2022/07/21 01:47:49;;;;;;;18.45;6.00;;;25.80;79.00;;;;;;5043044;28;20048;-64
2022/07/21 01:50:16;;;;;;;15.63;6.40;;;25.70;79.60;;;;;;5051212;28;20035;-64
2022/07/21 01:52:41;;;;;;;12.90;5.53;;;25.70;79.90;;;;;;5035235;28;20057;-64
2022/07/21 01:55:07;;;;;;;12.32;5.53;;;25.70;80.20;;;;;;5043728;28;20067;-64
2022/07/21 01:57:33;;;;;;;15.48;6.13;;;25.70;80.30;;;;;;5042616;28;20142;-64
2022/07/21 01:59:59;;;;;;;12.18;5.70;;;25.70;80.90;;;;;;5049289;28;20037;-64
2022/07/21 02:02:24;;;;;;;13.05;6.15;;;25.70;80.80;;;;;;5051090;28;20056;-64
2022/07/21 02:04:50;;;;;;;11.82;6.15;;;25.60;81.00;;;;;;5050327;28;20029;-64
2022/07/21 02:07:16;;;;;;;15.90;6.85;;;25.50;80.20;;;;;;5041889;28;20029;-64
2022/07/21 02:09:42;;;;;;;15.15;7.05;;;25.60;80.60;;;;;;5047547;28;20045;-64
2022/07/21 02:12:08;;;;;;;13.38;6.95;;;25.50;80.60;;;;;;5051378;28;20064;-64
2022/07/21 02:14:34;;;;;;;13.80;7.18;;;25.50;80.40;;;;;;5050709;28;20052;-64
2022/07/21 02:16:59;;;;;;;13.85;6.10;;;25.50;80.00;;;;;;5051597;28;20037;-64
2022/07/21 02:19:25;;;;;;;15.50;6.75;;;25.40;78.30;;;;;;5034341;28;20041;-64
2022/07/21 02:21:50;;;;;;;15.75;6.43;;;25.40;79.40;;;;;;5043426;28;20029;-64
2022/07/21 02:24:16;;;;;;;18.55;6.70;;;25.40;80.30;;;;;;5046196;28;20499;-64
2022/07/21 02:26:42;;;;;;;12.90;6.47;;;25.40;81.10;;;;;;5049394;28;20388;-63
2022/07/21 02:29:07;;;;;;;10.90;5.90;;;25.40;81.50;;;;;;5035988;28;20045;-64
2022/07/21 02:31:33;;;;;;;13.43;6.13;;;25.30;81.60;;;;;;5049227;28;20032;-64
2022/07/21 02:33:59;;;;;;;15.77;6.55;;;25.40;82.10;;;;;;5035279;28;20033;-64
2022/07/21 02:36:25;;;;;;;12.38;6.85;;;25.30;82.20;;;;;;5051131;28;20052;-64
2022/07/21 02:38:50;;;;;;;10.88;6.30;;;25.30;82.30;;;;;;5054381;28;20033;-64
2022/07/21 02:41:16;;;;;;;12.52;6.53;;;25.30;82.30;;;;;;5050363;28;20021;-64
2022/07/21 02:43:42;;;;;;;14.48;6.85;;;25.20;82.40;;;;;;5046014;28;20033;-64
2022/07/21 02:46:08;;;;;;;11.20;6.57;;;25.20;82.70;;;;;;5054100;28;20461;-63
2022/07/21 02:48:34;;;;;;;13.82;6.38;;;25.20;82.90;;;;;;5043995;28;20124;-64
2022/07/21 02:50:59;;;;;;;12.93;6.68;;;25.20;83.20;;;;;;5036218;28;20060;-64
2022/07/21 02:53:26;;;;;;;17.77;7.10;;;25.20;83.00;;;;;;5035720;28;20033;-64
2022/07/21 02:55:52;;;;;;;16.48;6.50;;;25.20;82.70;;;;;;5042315;28;20111;-64
2022/07/21 02:58:21;;;;;;;16.75;6.63;;;25.10;82.50;;;;;;5034374;28;20038;-64
2022/07/21 03:00:52;;;;;;;11.30;6.22;;;25.10;82.70;;;;;;5045432;28;20025;-64
2022/07/21 03:03:19;;;;;;;16.85;6.60;;;25.10;82.60;;;;;;5049040;28;20048;-64
2022/07/21 03:05:45;;;;;;;15.43;7.30;;;25.00;82.70;;;;;;5046182;28;20029;-64
2022/07/21 03:08:11;;;;;;;15.43;7.63;;;25.00;83.20;;;;;;5052444;28;20485;-64
2022/07/21 03:10:38;;;;;;;14.38;6.93;;;25.00;84.20;;;;;;5054532;28;20064;-64
2022/07/21 03:13:05;;;;;;;14.50;7.50;;;25.00;83.60;;;;;;5053666;28;20051;-64
2022/07/21 03:15:32;;;;;;;13.25;8.32;;;25.00;84.00;;;;;;5053737;28;20033;-63
2022/07/21 03:17:58;;;;;;;17.38;7.40;;;25.00;84.40;;;;;;5040514;28;20028;-64
2022/07/21 03:20:29;;;;;;;15.25;7.85;;;25.00;84.20;;;;;;5053828;28;20040;-64
2022/07/21 03:22:54;;;;;;;24.02;7.38;;;25.10;84.10;;;;;;5053122;28;20040;-64
2022/07/21 03:25:21;;;;;;;11.95;7.55;;;25.00;84.00;;;;;;5041317;28;20033;-64
2022/07/21 03:27:47;;;;;;;15.30;7.45;;;25.00;84.00;;;;;;5040455;28;20485;-64
2022/07/21 03:30:14;;;;;;;14.85;8.27;;;25.00;83.60;;;;;;5052498;28;20036;-64
2022/07/21 03:32:40;;;;;;;13.38;7.07;;;25.00;84.40;;;;;;5049944;28;20017;-64
2022/07/21 03:35:08;;;;;;;14.48;7.15;;;25.00;83.10;;;;;;5049298;28;20384;-63
2022/07/21 03:37:44;;;;;;;14.15;7.72;;;24.90;82.50;;;;;;5039941;28;20491;-64
2022/07/21 03:40:15;;;;;;;16.45;8.07;;;24.90;82.70;;;;;;5038513;28;20395;-64
2022/07/21 03:42:41;;;;;;;16.30;7.60;;;24.90;83.40;;;;;;5043486;28;20051;-64
2022/07/21 03:45:09;;;;;;;17.73;8.10;;;24.90;83.10;;;;;;5052262;28;20542;-64
2022/07/21 03:47:34;;;;;;;13.65;7.78;;;24.80;84.00;;;;;;5044185;28;20034;-64
2022/07/21 03:50:03;;;;;;;14.35;8.25;;;24.90;84.30;;;;;;5049549;28;20031;-64
2022/07/21 03:52:29;;;;;;;14.77;7.47;;;24.80;84.60;;;;;;5043203;28;20037;-64
2022/07/21 03:55:07;;;;;;;13.52;8.10;;;24.80;84.40;;;;;;5046061;28;20059;-64
2022/07/21 03:57:46;;;;;;;15.50;8.25;;;24.70;85.00;;;;;;5043547;28;20035;-64
2022/07/21 04:00:29;;;;;;;14.02;7.55;;;24.80;85.40;;;;;;5052413;28;20040;-64
2022/07/21 04:02:56;;;;;;;14.70;8.05;;;24.70;85.40;;;;;;5039976;28;20030;-64
2022/07/21 04:05:24;;;;;;;15.15;8.25;;;24.70;83.90;;;;;;5052675;28;20056;-64
2022/07/21 04:07:51;;;;;;;20.98;9.10;;;24.60;83.90;;;;;;5052555;28;20476;-64
2022/07/21 04:10:22;;;;;;;15.70;8.80;;;24.60;84.60;;;;;;5045032;28;20037;-64
2022/07/21 04:12:48;;;;;;;18.92;8.93;;;24.60;85.40;;;;;;5047549;28;20044;-64
2022/07/21 04:15:14;;;;;;;12.77;7.93;;;24.60;85.90;;;;;;5044441;28;20040;-64
2022/07/21 04:17:40;;;;;;;14.90;8.13;;;24.70;85.60;;;;;;5046238;28;20030;-64
2022/07/21 04:20:08;;;;;;;11.70;7.88;;;24.70;84.70;;;;;;5042230;28;20029;-64
2022/07/21 04:22:34;;;;;;;14.52;8.10;;;24.60;84.30;;;;;;5037161;28;20036;-64
2022/07/21 04:25:00;;;;;;;15.43;7.93;;;24.60;84.10;;;;;;5034472;28;20100;-64
2022/07/21 04:27:26;;;;;;;14.65;8.10;;;24.50;83.60;;;;;;5037224;28;20425;-64
2022/07/21 04:29:51;;;;;;;16.20;7.97;;;24.50;83.70;;;;;;5042854;28;20120;-64
2022/07/21 04:32:17;;;;;;;15.40;8.38;;;24.50;84.00;;;;;;5052297;28;20114;-64
2022/07/21 04:34:43;;;;;;;14.27;8.73;;;24.50;84.70;;;;;;5052175;28;20043;-64
2022/07/21 04:37:09;;;;;;;14.60;8.48;;;24.50;84.80;;;;;;5036635;28;20429;-64
2022/07/21 04:39:34;;;;;;;14.02;8.02;;;24.50;84.50;;;;;;5033062;28;20057;-63
2022/07/21 04:42:00;;;;;;;16.77;8.38;;;24.50;84.80;;;;;;5045444;28;20528;-63
2022/07/21 04:44:26;;;;;;;14.05;8.02;;;24.50;84.90;;;;;;5043590;28;20491;-64
2022/07/21 04:46:51;;;;;;;16.13;8.20;;;24.50;85.30;;;;;;5051232;28;20033;-64
2022/07/21 04:49:17;;;;;;;13.73;7.97;;;24.50;84.50;;;;;;5052893;28;20041;-64
2022/07/21 04:51:43;;;;;;;15.63;8.20;;;24.50;85.10;;;;;;5038948;28;20048;-64
2022/07/21 04:54:09;;;;;;;14.60;8.23;;;24.40;84.00;;;;;;5051502;28;20033;-63
2022/07/21 04:56:34;;;;;;;13.45;8.23;;;24.40;83.30;;;;;;5037603;28;20041;-64
2022/07/21 04:59:01;;;;;;;14.60;7.85;;;24.40;83.40;;;;;;5043715;28;20044;-63
2022/07/21 05:01:27;;;;;;;18.33;8.45;;;24.30;83.20;;;;;;5034172;28;20036;-64
2022/07/21 05:03:53;;;;;;;15.82;7.25;;;24.40;83.00;;;;;;5051576;28;20029;-64
2022/07/21 05:06:19;;;;;;;16.52;7.90;;;24.30;82.30;;;;;;5039248;28;20085;-64
2022/07/21 05:08:45;;;;;;;13.95;7.72;;;24.30;81.80;;;;;;5051288;28;20044;-64
2022/07/21 05:11:10;;;;;;;13.98;8.05;;;24.30;82.20;;;;;;5051554;28;20114;-64
2022/07/21 05:13:36;;;;;;;17.95;8.32;;;24.30;81.90;;;;;;5052171;28;20033;-64
2022/07/21 05:16:02;;;;;;;17.45;8.23;;;24.20;81.80;;;;;;5050812;28;20040;-64
2022/07/21 05:18:28;;;;;;;15.30;8.55;;;24.30;81.60;;;;;;5051815;28;20384;-64
2022/07/21 05:20:54;;;;;;;14.35;8.20;;;24.20;82.00;;;;;;5038267;28;20400;-64
2022/07/21 05:23:19;;;;;;;13.88;7.63;;;24.20;81.00;;;;;;5051434;28;20048;-63
2022/07/21 05:25:45;;;;;;;16.70;9.35;;;24.20;81.30;;;;;;5039230;28;20029;-64
2022/07/21 05:28:14;;;;;;;15.35;9.57;;;24.20;82.00;;;;;;5041240;28;20021;-64
2022/07/21 05:30:39;;;;;;;20.25;9.55;;;24.20;82.50;;;;;;5049915;28;20072;-64
2022/07/21 05:33:05;;;;;;;16.58;9.68;;;24.20;82.40;;;;;;5046179;28;20029;-64
2022/07/21 05:35:33;;;;;;;17.45;9.73;;;24.20;82.40;;;;;;5034238;28;20037;-64
2022/07/21 05:37:59;;;;;;;14.43;9.45;;;24.20;81.70;;;;;;5040176;28;20036;-64
2022/07/21 05:40:27;;;;;;;17.00;10.05;;;24.20;81.70;;;;;;5049403;28;20048;-64
2022/07/21 05:42:53;;;;;;;18.90;11.00;;;24.20;82.60;;;;;;5039009;28;20037;-64
2022/07/21 05:45:18;;;;;;;20.50;11.25;;;24.20;83.30;;;;;;5049990;28;20029;-64
2022/07/21 05:47:44;;;;;;;19.45;10.38;;;24.20;83.30;;;;;;5050850;28;20460;-64
2022/07/21 05:50:12;;;;;;;17.10;11.25;;;24.20;82.60;;;;;;5049242;28;20084;-64
2022/07/21 05:52:38;;;;;;;20.70;11.80;;;24.20;83.40;;;;;;5052466;28;20024;-64
2022/07/21 05:55:04;;;;;;;16.92;10.00;;;24.20;83.00;;;;;;5053019;28;20033;-63
2022/07/21 05:57:30;;;;;;;16.20;10.32;;;24.20;82.50;;;;;;5044940;28;20434;-64
2022/07/21 05:59:56;;;;;;;25.33;14.00;;;24.20;82.90;;;;;;5055066;28;20112;-64
2022/07/21 06:02:21;;;;;;;21.75;13.23;;;24.20;84.60;;;;;;5046004;28;20108;-64
2022/07/21 06:04:47;;;;;;;17.55;11.82;;;24.20;84.90;;;;;;5038775;28;20040;-64
2022/07/21 06:07:13;;;;;;;19.48;13.25;;;24.30;84.50;;;;;;5055110;28;20033;-64
2022/07/21 06:09:38;;;;;;;16.85;9.60;;;24.30;84.70;;;;;;5054574;28;20052;-64
2022/07/21 06:12:04;;;;;;;15.32;7.75;;;24.30;82.90;;;;;;5055014;28;20036;-64
2022/07/21 06:14:30;;;;;;;24.23;11.98;;;24.30;82.00;;;;;;5054652;28;20561;-63
2022/07/21 06:16:55;;;;;;;20.33;12.52;;;24.30;83.00;;;;;;5052086;28;20491;-64
2022/07/21 06:19:21;;;;;;;20.55;11.40;;;24.30;83.90;;;;;;5051348;28;20037;-64
2022/07/21 06:21:47;;;;;;;19.35;11.40;;;24.30;83.60;;;;;;5052402;28;20506;-64
2022/07/21 06:24:13;;;;;;;16.77;10.75;;;24.30;83.90;;;;;;5052214;28;20045;-64
2022/07/21 06:26:39;;;;;;;20.42;11.07;;;24.30;83.60;;;;;;5048799;28;20020;-64
2022/07/21 06:29:06;;;;;;;22.00;12.38;;;24.30;83.70;;;;;;5051912;28;20040;-64
2022/07/21 06:31:32;;;;;;;18.95;11.15;;;24.30;84.10;;;;;;5052568;28;20029;-64
2022/07/21 06:33:58;;;;;;;19.90;10.90;;;24.40;83.70;;;;;;5050569;28;20029;-64
2022/07/21 06:36:23;;;;;;;19.50;12.60;;;24.30;83.70;;;;;;5051515;28;20040;-64
2022/07/21 06:38:49;;;;;;;21.13;11.75;;;24.40;84.00;;;;;;5049616;28;20035;-64
2022/07/21 06:41:15;;;;;;;19.10;11.32;;;24.30;83.90;;;;;;5051334;28;20024;-64
2022/07/21 06:43:40;;;;;;;18.67;10.82;;;24.40;83.70;;;;;;5050899;28;20033;-64
2022/07/21 06:46:06;;;;;;;18.08;10.48;;;24.40;83.20;;;;;;5051797;28;20031;-64
2022/07/21 06:48:32;;;;;;;17.60;7.72;;;24.30;83.60;;;;;;5051557;28;20079;-64
2022/07/21 06:50:58;;;;;;;18.48;10.57;;;24.30;82.70;;;;;;5050535;28;20446;-64
2022/07/21 06:53:24;;;;;;;17.33;11.07;;;24.40;83.50;;;;;;5050070;28;20025;-64
2022/07/21 06:55:52;;;;;;;19.92;13.20;;;24.40;83.90;;;;;;5050914;28;20031;-64
2022/07/21 06:58:20;;;;;;;18.50;11.00;;;24.30;84.70;;;;;;5051731;28;20021;-65
2022/07/21 07:00:46;;;;;;;15.07;8.02;;;24.30;84.30;;;;;;5050016;28;20059;-64
2022/07/21 07:03:13;;;;;;;13.35;7.35;;;24.30;83.30;;;;;;5051087;28;20029;-64
2022/07/21 07:05:39;;;;;;;16.80;9.57;;;24.40;84.00;;;;;;5049804;28;20115;-64
2022/07/21 07:08:06;;;;;;;13.90;8.38;;;24.30;83.90;;;;;;5050683;28;20053;-64
2022/07/21 07:10:34;;;;;;;17.25;10.07;;;24.30;83.60;;;;;;5051008;28;20701;-64
2022/07/21 07:13:01;;;;;;;8.93;6.32;;;24.30;84.30;;;;;;5051036;28;20032;-64
2022/07/21 07:15:27;;;;;;;16.42;10.05;;;24.40;83.80;;;;;;5051900;28;20029;-64
2022/07/21 07:17:53;;;;;;;17.80;10.45;;;24.40;84.50;;;;;;5051757;28;20486;-64
2022/07/21 07:20:19;;;;;;;19.02;10.25;;;24.30;84.80;;;;;;5052561;28;20074;-64
2022/07/21 07:22:44;;;;;;;13.30;6.70;;;24.30;85.00;;;;;;5051620;28;20115;-64
2022/07/21 07:25:10;;;;;;;14.57;7.78;;;24.30;84.00;;;;;;5050665;28;20384;-64
2022/07/21 07:27:36;;;;;;;16.50;11.18;;;24.40;84.10;;;;;;5045608;28;20464;-64
2022/07/21 07:30:03;;;;;;;19.50;11.48;;;24.30;85.30;;;;;;5051614;28;20025;-64
2022/07/21 07:32:29;;;;;;;18.73;12.32;;;24.40;85.70;;;;;;5051806;28;20032;-64
2022/07/21 07:34:55;;;;;;;19.90;12.35;;;24.40;85.80;;;;;;5050556;28;20051;-64
2022/07/21 07:37:21;;;;;;;16.45;10.38;;;24.30;85.40;;;;;;5051125;28;20044;-64
2022/07/21 07:39:46;;;;;;;15.75;8.98;;;24.40;85.00;;;;;;5049678;28;20029;-64
2022/07/21 07:42:12;;;;;;;16.58;10.95;;;24.40;84.80;;;;;;5051253;28;20027;-65
2022/07/21 07:44:40;;;;;;;17.63;10.63;;;24.40;84.70;;;;;;5051352;28;20025;-64
2022/07/21 07:47:06;;;;;;;19.23;8.48;;;24.40;84.60;;;;;;5051071;28;20468;-64
2022/07/21 07:49:32;;;;;;;7.32;3.72;;;24.40;84.10;;;;;;5050777;28;20045;-64
2022/07/21 07:51:58;;;;;;;13.48;8.48;;;24.40;84.00;;;;;;5049185;28;20029;-64
2022/07/21 07:54:24;;;;;;;18.42;10.98;;;24.40;84.50;;;;;;5050858;28;20483;-64
2022/07/21 07:56:50;;;;;;;21.13;12.63;;;24.40;84.60;;;;;;5049216;28;20060;-64
2022/07/21 07:59:16;;;;;;;17.48;11.65;;;24.40;85.10;;;;;;5050633;28;20060;-64
2022/07/21 08:01:42;;;;;;;16.77;9.63;;;24.40;85.20;;;;;;5049492;28;20481;-64
2022/07/21 08:04:08;;;;;;;13.18;6.32;;;24.40;84.60;;;;;;5048994;28;20037;-64
2022/07/21 08:06:34;;;;;;;18.95;11.38;;;24.40;84.10;;;;;;5049053;28;20029;-64
2022/07/21 08:08:59;;;;;;;14.18;8.85;;;24.40;84.90;;;;;;5051780;28;20067;-64
2022/07/21 08:11:25;;;;;;;16.85;9.55;;;24.40;84.70;;;;;;5051332;28;20036;-65
2022/07/21 08:13:51;;;;;;;16.02;11.23;;;24.40;84.70;;;;;;5052450;28;20079;-64
2022/07/21 08:16:17;;;;;;;23.77;14.88;;;24.40;85.00;;;;;;5051471;28;20033;-64
2022/07/21 08:18:43;;;;;;;17.60;12.57;;;24.30;85.30;;;;;;5046043;28;20035;-64
2022/07/21 08:21:10;;;;;;;17.98;10.93;;;24.30;85.00;;;;;;5050329;28;20028;-64
2022/07/21 08:23:36;;;;;;;15.10;10.48;;;24.30;84.50;;;;;;5049597;28;20112;-64
2022/07/21 08:26:03;;;;;;;23.02;11.95;;;24.30;84.40;;;;;;5049359;28;20468;-64
2022/07/21 08:28:29;;;;;;;19.40;13.07;;;24.30;84.70;;;;;;5049538;28;20068;-64
2022/07/21 08:30:54;;;;;;;31.02;14.27;;;24.30;84.50;;;;;;5047879;28;20361;-64
2022/07/21 08:33:20;;;;;;;24.67;14.63;;;24.40;84.70;;;;;;5051452;28;20036;-64
2022/07/21 08:35:46;;;;;;;18.80;12.38;;;24.30;84.80;;;;;;5048455;28;20024;-64
2022/07/21 08:38:12;;;;;;;18.75;12.63;;;24.40;84.40;;;;;;5050837;28;20029;-64
2022/07/21 08:40:41;;;;;;;20.63;11.98;;;24.40;84.50;;;;;;5030329;28;20037;-64
2022/07/21 08:43:08;;;;;;;21.10;13.25;;;24.40;84.30;;;;;;5051499;28;20029;-64
2022/07/21 08:45:35;;;;;;;17.90;13.73;;;24.40;84.20;;;;;;5049751;28;20080;-64
2022/07/21 08:48:02;;;;;;;18.98;13.68;;;24.40;84.90;;;;;;5050745;28;20068;-64
2022/07/21 08:50:30;;;;;;;20.70;13.70;;;24.40;84.80;;;;;;5050924;28;20033;-64
2022/07/21 08:52:57;;;;;;;19.02;13.52;;;24.40;85.10;;;;;;5050253;28;20056;-64
2022/07/21 08:55:23;;;;;;;20.27;14.02;;;24.50;84.80;;;;;;5046926;28;20053;-64
2022/07/21 08:57:49;;;;;;;17.88;13.77;;;24.50;84.90;;;;;;5051228;28;20496;-64
2022/07/21 09:00:15;;;;;;;20.58;14.38;;;24.50;84.70;;;;;;5050297;28;20121;-64
2022/07/21 09:02:43;;;;;;;21.73;14.55;;;24.50;84.90;;;;;;5041768;28;20033;-64
2022/07/21 09:05:10;;;;;;;22.05;15.20;;;24.50;85.20;;;;;;5036186;28;20539;-64
2022/07/21 09:07:54;;;;;;;21.17;13.88;;;24.50;85.60;;;;;;5044361;28;20033;-64
2022/07/21 09:10:25;;;;;;;17.40;12.95;;;24.50;84.70;;;;;;5043306;28;20123;-64
2022/07/21 09:13:03;;;;;;;20.67;13.43;;;24.60;84.70;;;;;;5050166;28;20484;-65
2022/07/21 09:15:31;;;;;;;16.75;11.15;;;24.60;84.50;;;;;;5047112;28;20060;-64
2022/07/21 09:18:09;;;;;;;18.48;12.52;;;24.60;83.60;;;;;;5049971;28;20032;-64
2022/07/21 09:20:35;;;;;;;25.35;12.63;;;24.60;83.60;;;;;;5043745;28;20087;-64
2022/07/21 09:23:09;;;;;;;16.67;12.88;;;24.60;83.90;;;;;;5047344;28;20475;-64
2022/07/21 09:25:37;;;;;;;20.52;12.55;;;24.70;83.80;;;;;;5047327;28;20108;-64
2022/07/21 09:28:25;;;;;;;19.92;13.32;;;24.60;83.70;;;;;;5048914;28;20051;-64
2022/07/21 09:30:55;;;;;;;21.23;14.30;;;24.70;84.10;;;;;;5052765;28;20032;-64
2022/07/21 09:33:32;;;;;;;17.98;11.82;;;24.70;85.20;;;;;;5053412;28;20021;-65
2022/07/21 09:35:59;;;;;;;14.88;9.52;;;24.80;84.20;;;;;;5048661;28;20033;-64
2022/07/21 09:38:26;;;;;;;21.02;13.48;;;24.80;83.20;;;;;;5050641;28;20040;-64
2022/07/21 09:40:52;;;;;;;20.33;14.02;;;24.90;83.50;;;;;;5052737;28;20464;-63
2022/07/21 09:43:42;;;;;;;21.48;13.45;;;25.00;84.20;;;;;;5051458;28;20032;-63
2022/07/21 09:46:14;;;;;;;19.63;12.90;;;25.00;83.60;;;;;;5052290;28;20179;-64
2022/07/21 09:48:42;;;;;;;17.23;11.48;;;25.00;83.40;;;;;;5053444;28;20388;-64
2022/07/21 09:51:29;;;;;;;12.63;8.60;;;25.10;82.50;;;;;;5053015;28;20040;-63
2022/07/21 09:54:04;;;;;;;16.95;11.20;;;25.10;82.20;;;;;;5049881;28;20082;-64
2022/07/21 09:56:32;;;;;;;16.35;9.02;;;25.20;82.80;;;;;;5050371;28;20106;-64
2022/07/21 09:59:00;;;;;;;15.85;11.32;;;25.20;82.80;;;;;;5052252;28;20091;-64
2022/07/21 10:01:27;;;;;;;16.45;11.82;;;25.20;82.90;;;;;;5051522;28;20029;-64
2022/07/21 10:03:54;;;;;;;14.30;9.40;;;25.20;82.90;;;;;;5052251;28;20035;-64
2022/07/21 10:06:24;;;;;;;15.13;9.80;;;25.20;82.70;;;;;;5054069;28;20029;-64
2022/07/21 10:08:50;;;;;;;16.95;10.00;;;25.30;82.90;;;;;;5051009;28;20492;-64
2022/07/21 10:11:16;;;;;;;14.68;10.00;;;25.30;82.80;;;;;;5054757;28;20040;-64
2022/07/21 10:13:41;;;;;;;22.83;14.73;;;25.30;83.00;;;;;;5049212;28;20044;-64
2022/07/21 10:16:11;;;;;;;17.50;11.23;;;25.40;83.30;;;;;;5041542;28;20025;-64
2022/07/21 10:19:02;;;;;;;20.00;13.10;;;25.40;83.10;;;;;;5053944;28;20064;-64
2022/07/21 10:21:50;;;;;;;21.77;13.40;;;25.40;83.10;;;;;;5051538;28;20559;-64
2022/07/21 10:24:16;;;;;;;20.90;13.35;;;25.40;83.10;;;;;;5050855;28;20021;-64
2022/07/21 10:27:09;;;;;;;21.48;13.95;;;25.40;82.90;;;;;;5039762;28;20472;-65
2022/07/21 10:29:55;;;;;;;25.00;14.88;;;25.50;83.00;;;;;;5043288;28;20432;-65
2022/07/21 10:32:25;;;;;;;22.63;14.10;;;25.50;82.90;;;;;;5053913;28;20029;-64
2022/07/21 10:34:51;;;;;;;26.17;16.25;;;25.50;82.90;;;;;;5050275;28;20036;-64
2022/07/21 10:37:39;;;;;;;25.25;14.63;;;25.50;83.10;;;;;;5051963;28;20025;-64
2022/07/21 10:40:06;;;;;;;23.25;15.23;;;25.50;82.80;;;;;;5049388;28;20021;-64
2022/07/21 10:42:32;;;;;;;27.83;15.15;;;25.60;83.00;;;;;;5051494;28;20443;-64
2022/07/21 10:44:58;;;;;;;23.92;14.95;;;25.60;83.00;;;;;;5049599;28;20128;-64
2022/07/21 10:47:30;;;;;;;25.33;15.27;;;25.60;82.90;;;;;;5051182;28;20086;-64
2022/07/21 10:50:04;;;;;;;24.05;14.45;;;25.60;82.90;;;;;;5050912;28;20116;-64
2022/07/21 10:52:35;;;;;;;25.48;16.27;;;25.60;82.90;;;;;;5050348;28;20506;-64
2022/07/21 10:55:13;;;;;;;16.50;11.88;;;25.70;83.00;;;;;;5050720;28;20033;-64
2022/07/21 10:58:08;;;;;;;17.42;10.75;;;25.70;82.80;;;;;;5052119;28;20033;-64
2022/07/21 11:00:36;;;;;;;25.63;14.30;;;25.70;82.90;;;;;;5050737;28;20495;-64
2022/07/21 11:03:04;;;;;;;21.65;13.38;;;25.70;83.00;;;;;;5052239;28;20029;-64
2022/07/21 11:05:33;;;;;;;27.30;18.00;;;25.70;83.10;;;;;;5052175;28;20075;-64
2022/07/21 11:08:18;;;;;;;22.90;11.65;;;25.70;83.60;;;;;;5049926;28;20052;-64
2022/07/21 11:10:49;;;;;;;27.50;14.30;;;25.80;83.30;;;;;;5050465;28;20037;-64
2022/07/21 11:13:17;;;;;;;22.42;13.13;;;25.80;83.70;;;;;;5051283;28;20087;-64
2022/07/21 11:15:56;;;;;;;24.33;15.57;;;25.80;83.70;;;;;;5050625;28;20048;-64
2022/07/21 11:18:25;;;;;;;16.48;9.60;;;25.80;83.90;;;;;;5050113;28;20090;-64
2022/07/21 11:53:55;;;;;;;15.90;9.80;;;24.50;88.10;;;;;;5093236;27;20891;-66
2022/07/21 11:56:21;;;;;;;17.67;10.60;;;26.00;86.30;;;;;;5082424;28;20086;-64
2022/07/21 11:58:48;;;;;;;24.05;15.23;;;26.20;85.20;;;;;;5067254;28;20072;-65
2022/07/21 12:01:14;;;;;;;20.95;14.93;;;26.30;84.30;;;;;;5064286;28;20033;-65
2022/07/21 12:03:48;;;;;;;22.67;13.57;;;26.40;84.50;;;;;;5067264;28;20054;-65
2022/07/21 12:06:15;;;;;;;12.35;6.53;;;26.40;83.70;;;;;;5066364;28;20480;-65
2022/07/21 12:08:42;;;;;;;11.82;6.38;;;26.50;83.60;;;;;;5068099;28;20024;-65
2022/07/21 12:11:10;;;;;;;8.70;4.72;;;26.50;83.20;;;;;;5066026;28;20056;-65
2022/07/21 12:13:57;;;;;;;13.57;8.85;;;26.60;83.30;;;;;;5067075;28;20091;-65
2022/07/21 12:16:24;;;;;;;14.65;8.20;;;26.60;83.10;;;;;;5069984;28;20036;-65
2022/07/21 12:19:15;;;;;;;14.45;8.23;;;26.60;82.80;;;;;;5065849;28;20036;-65
2022/07/21 12:21:59;;;;;;;13.85;5.63;;;26.70;82.30;;;;;;5065196;28;20115;-65
2022/07/21 12:24:49;;;;;;;14.85;9.20;;;26.70;82.00;;;;;;5065287;28;20033;-65
2022/07/21 12:27:16;;;;;;;14.88;9.98;;;26.70;81.60;;;;;;5066407;28;20107;-65
2022/07/21 12:29:42;;;;;;;11.98;8.05;;;26.80;81.60;;;;;;5066429;28;20049;-65
2022/07/21 12:32:08;;;;;;;13.35;9.20;;;26.80;81.70;;;;;;5068014;28;20045;-65
2022/07/21 12:34:49;;;;;;;8.35;4.53;;;26.90;81.70;;;;;;5067087;28;20029;-65
2022/07/21 12:37:15;;;;;;;17.88;13.27;;;26.90;81.80;;;;;;5066447;28;20021;-65
2022/07/21 12:39:56;;;;;;;19.65;13.75;;;27.00;82.20;;;;;;5065442;28;20044;-65
2022/07/21 12:42:48;;;;;;;19.38;14.02;;;27.10;82.50;;;;;;5066883;28;20029;-65
2022/07/21 12:45:18;;;;;;;23.63;14.77;;;27.20;82.60;;;;;;5062671;28;20080;-64
2022/07/21 12:48:08;;;;;;;21.85;14.25;;;27.20;82.80;;;;;;5064203;28;20032;-64
2022/07/21 12:50:40;;;;;;;17.88;12.90;;;27.30;82.40;;;;;;5064819;28;20076;-65
2022/07/21 12:53:10;;;;;;;15.13;9.13;;;27.40;82.40;;;;;;5061659;28;20474;-64
2022/07/21 12:55:37;;;;;;;17.40;12.15;;;27.50;82.10;;;;;;5050399;28;20043;-64
2022/07/21 12:58:04;;;;;;;14.65;10.95;;;27.40;81.50;;;;;;5052767;28;20491;-64
2022/07/21 13:00:29;;;;;;;13.70;6.97;;;27.60;81.20;;;;;;5051961;28;20037;-64
2022/07/21 13:02:56;;;;;;;13.70;10.70;;;27.60;81.50;;;;;;5054314;28;20029;-64
2022/07/21 13:05:24;;;;;;;15.82;11.50;;;27.60;81.30;;;;;;5054103;28;20044;-65
2022/07/21 13:07:51;;;;;;;17.90;12.65;;;27.70;81.10;;;;;;5053417;28;20033;-64
2022/07/21 13:10:17;;;;;;;18.88;12.73;;;27.70;81.00;;;;;;5052711;28;20380;-64
2022/07/21 13:12:43;;;;;;;17.10;12.55;;;27.80;81.70;;;;;;5051841;28;20032;-64
2022/07/21 13:15:09;;;;;;;15.48;10.38;;;27.80;81.50;;;;;;5051872;28;20108;-65